Time;durP1;ratioP1;P1;durP2;ratioP2;P2;SDS_P1;SDS_P2;PMS_P1;PMS_P2;Temp;Humidity;BMP_temperature;BMP_pressure;BME280_temperature;BME280_humidity;BME280_pressure;Samples;Min_cycle;Max_cycle;Signal;HPM_P1;HPM_P2
2022/03/22 00:00:45;;;;;;;;;;;;;;;6.85;80.61;103163.84;5006604;28;19937;-70
2022/03/22 00:03:10;;;;;;;;;;;;;;;6.83;80.01;103171.69;5002293;28;19921;-72
2022/03/22 00:05:40;;;;;;;;;;;;;;;6.80;80.75;103174.28;5006157;28;19926;-71
2022/03/22 00:08:05;;;;;;;;;;;;;;;6.78;79.91;103181.22;5004301;28;19922;-70
2022/03/22 00:10:31;;;;;;;;;;;;;;;6.77;80.12;103179.47;5008145;28;19972;-70
2022/03/22 00:12:56;;;;;;;;;;;;;;;6.85;80.88;103182.13;5006681;28;20009;-71
2022/03/22 00:15:22;;;;;;;;;;;;;;;6.78;80.90;103171.63;5002521;28;20020;-70
2022/03/22 00:17:47;;;;;;;;;;;;;;;6.73;80.99;103175.97;5013620;28;20494;-71
2022/03/22 00:20:12;;;;;;;;;;;;;;;6.68;81.29;103169.81;5010638;28;20287;-72
2022/03/22 00:22:39;;;;;;;;;;;;;;;6.62;80.91;103173.25;5008526;28;19945;-70
2022/03/22 00:25:05;;;;;;;;;;;;;;;6.61;80.84;103170.66;5007831;28;19921;-71
2022/03/22 00:27:50;;;;;;;;;;;;;;;6.64;81.68;103178.50;5003494;28;19921;-70
2022/03/22 00:30:16;;;;;;;;;;;;;;;6.70;81.57;103169.84;5000978;28;19925;-70
2022/03/22 00:32:41;;;;;;;;;;;;;;;6.75;82.39;103170.75;5012551;28;20384;-71
2022/03/22 00:35:07;;;;;;;;;;;;;;;6.75;82.88;103176.84;5009456;28;19924;-70
2022/03/22 00:37:35;;;;;;;;;;;;;;;6.71;82.34;103176.81;5011854;28;19925;-71
2022/03/22 00:40:02;;;;;;;;;;;;;;;6.67;82.33;103175.91;5011428;28;19925;-73
2022/03/22 00:42:27;;;;;;;;;;;;;;;6.72;83.82;103175.97;5014469;28;19926;-73
2022/03/22 00:44:54;;;;;;;;;;;;;;;6.69;82.95;103175.94;5011910;28;19928;-74
2022/03/22 00:47:19;;;;;;;;;;;;;;;6.64;82.75;103174.16;5015642;28;19971;-76
2022/03/22 00:49:45;;;;;;;;;;;;;;;6.63;82.92;103171.53;5022139;28;19925;-76
2022/03/22 00:52:10;;;;;;;;;;;;;;;6.60;83.08;103174.13;5016850;28;19929;-74
2022/03/22 00:54:36;;;;;;;;;;;;;;;6.53;82.88;103175.81;5017406;28;19937;-75
2022/03/22 00:57:02;;;;;;;;;;;;;;;6.47;83.00;103181.84;5019700;28;20269;-74
2022/03/22 01:02:08;;;;;;;;;;;;;;;6.42;83.52;103178.34;5008663;28;20373;-72
2022/03/22 01:04:35;;;;;;;;;;;;;;;6.38;82.90;103170.47;5019736;28;19927;-73
2022/03/22 01:07:01;;;;;;;;;;;;;;;6.34;83.59;103185.22;5021802;28;19929;-72
2022/03/22 01:09:27;;;;;;;;;;;;;;;6.29;83.83;103179.09;5028171;28;19929;-74
2022/03/22 01:11:52;;;;;;;;;;;;;;;6.29;84.77;103177.34;5026693;28;19929;-73
2022/03/22 01:14:17;;;;;;;;;;;;;;;6.27;84.91;103181.69;5006494;28;19928;-73
2022/03/22 01:16:43;;;;;;;;;;;;;;;6.31;85.30;103185.22;5009383;28;19928;-73
2022/03/22 01:19:08;;;;;;;;;;;;;;;6.32;85.56;103177.38;4990136;28;19968;-73
2022/03/22 01:21:33;;;;;;;;;;;;;;;6.29;86.08;103176.47;5010014;28;19972;-74
2022/03/22 01:24:02;;;;;;;;;;;;;;;6.28;85.39;103167.78;5013037;28;19928;-73
2022/03/22 01:26:27;;;;;;;;;;;;;;;6.25;85.58;103170.38;4997953;28;19917;-74
2022/03/22 01:28:53;;;;;;;;;;;;;;;6.27;86.06;103178.19;5009598;28;19929;-73
2022/03/22 01:31:18;;;;;;;;;;;;;;;6.27;86.25;103172.97;5005971;28;19925;-73
2022/03/22 01:33:43;;;;;;;;;;;;;;;6.26;86.12;103172.13;5008578;28;19918;-73
2022/03/22 01:36:09;;;;;;;;;;;;;;;6.23;85.66;103172.06;5006240;28;19921;-73
2022/03/22 01:38:34;;;;;;;;;;;;;;;6.18;85.92;103169.44;5007829;28;19987;-73
2022/03/22 01:40:59;;;;;;;;;;;;;;;6.15;86.31;103172.00;5007715;28;19925;-73
2022/03/22 01:43:25;;;;;;;;;;;;;;;6.12;86.18;103165.88;5006226;28;19922;-73
2022/03/22 01:45:50;;;;;;;;;;;;;;;6.10;85.90;103165.88;5023139;28;19944;-73
2022/03/22 01:48:16;;;;;;;;;;;;;;;6.08;86.34;103161.47;5006836;28;19929;-72
2022/03/22 01:50:42;;;;;;;;;;;;;;;6.06;86.23;103165.84;5009934;28;19960;-73
2022/03/22 01:53:08;;;;;;;;;;;;;;;6.02;85.76;103168.41;5006225;28;20403;-72
2022/03/22 01:55:33;;;;;;;;;;;;;;;5.99;86.19;103165.75;5007270;28;19925;-73
2022/03/22 01:57:59;;;;;;;;;;;;;;;5.95;86.47;103163.06;5007888;28;20431;-72
2022/03/22 02:00:25;;;;;;;;;;;;;;;5.93;87.35;103168.28;5004813;28;19918;-69
2022/03/22 02:08:17;;;;;;;;;;;;;;;5.87;87.00;103162.97;5008169;28;20391;-72
2022/03/22 02:10:42;;;;;;;;;;;;;;;5.82;87.76;103156.84;5028111;28;20399;-72
2022/03/22 02:13:08;;;;;;;;;;;;;;;5.81;86.78;103149.88;5026110;28;19952;-72
2022/03/22 02:15:33;;;;;;;;;;;;;;;5.81;87.44;103153.34;5025271;28;20343;-72
2022/03/22 02:17:59;;;;;;;;;;;;;;;5.80;87.89;103146.38;5027034;28;19917;-72
2022/03/22 02:20:24;;;;;;;;;;;;;;;5.78;87.58;103153.34;5007481;28;19917;-72
2022/03/22 02:22:51;;;;;;;;;;;;;;;5.81;88.94;103157.72;5017632;28;20419;-74
2022/03/22 02:25:16;;;;;;;;;;;;;;;5.90;89.87;103152.59;5004738;28;19924;-73
2022/03/22 02:27:44;;;;;;;;;;;;;;;5.90;89.80;103147.38;5007920;28;19921;-72
2022/03/22 02:30:10;;;;;;;;;;;;;;;6.08;91.69;103151.03;4986672;28;19928;-73
2022/03/22 02:32:35;;;;;;;;;;;;;;;6.08;91.56;103141.50;4986521;28;19925;-72
2022/03/22 02:35:01;;;;;;;;;;;;;;;6.09;92.40;103145.84;4987291;28;19928;-71
2022/03/22 02:37:26;;;;;;;;;;;;;;;6.08;92.32;103138.88;4987203;28;20263;-73
2022/03/22 02:39:51;;;;;;;;;;;;;;;6.09;92.71;103140.63;4987233;28;20242;-73
2022/03/22 02:42:17;;;;;;;;;;;;;;;6.09;92.24;103137.13;4990740;28;21125;-73
2022/03/22 02:44:42;;;;;;;;;;;;;;;6.05;92.63;103138.00;5006646;28;20436;-71
2022/03/22 02:47:08;;;;;;;;;;;;;;;5.99;92.75;103139.66;5006420;28;19945;-72
2022/03/22 02:49:34;;;;;;;;;;;;;;;5.97;93.23;103141.34;5006588;28;19967;-73
2022/03/22 02:51:59;;;;;;;;;;;;;;;5.96;92.75;103141.34;5013195;28;19925;-71
2022/03/22 02:54:25;;;;;;;;;;;;;;;6.02;93.98;103144.03;5025083;28;19933;-71
2022/03/22 02:56:50;;;;;;;;;;;;;;;6.02;94.15;103138.81;5015903;28;19921;-72
2022/03/22 02:59:16;;;;;;;;;;;;;;;6.05;94.57;103138.84;5005682;28;20007;-72
2022/03/22 03:01:41;;;;;;;;;;;;;;;6.00;94.08;103140.56;5006132;28;20444;-71
2022/03/22 03:04:06;;;;;;;;;;;;;;;5.96;94.27;103139.59;5016882;28;19952;-71
2022/03/22 03:06:32;;;;;;;;;;;;;;;5.92;94.25;103145.66;5026418;28;19979;-70
2022/03/22 03:08:59;;;;;;;;;;;;;;;5.92;94.46;103142.16;5026352;28;19991;-72
2022/03/22 03:11:24;;;;;;;;;;;;;;;5.91;95.39;103143.00;5025234;28;19933;-73
2022/03/22 03:16:31;;;;;;;;;;;;;;;5.82;95.31;103138.59;5024479;28;19924;-72
2022/03/22 03:18:56;;;;;;;;;;;;;;;5.84;94.96;103134.28;5021175;28;19921;-71
2022/03/22 03:21:21;;;;;;;;;;;;;;;5.85;96.31;103136.88;5005627;28;19917;-71
2022/03/22 03:23:47;;;;;;;;;;;;;;;5.77;96.09;103135.06;4999432;28;19917;-72
2022/03/22 03:26:12;;;;;;;;;;;;;;;5.75;96.41;103132.44;5005803;28;19924;-71
2022/03/22 03:28:37;;;;;;;;;;;;;;;5.73;96.18;103124.56;5006354;28;19945;-71
2022/03/22 03:31:03;;;;;;;;;;;;;;;5.67;96.77;103127.13;5005498;28;19917;-70
2022/03/22 03:33:28;;;;;;;;;;;;;;;5.63;96.90;103127.09;5006128;28;19971;-71
2022/03/22 03:35:54;;;;;;;;;;;;;;;5.63;96.86;103127.94;5007755;28;19921;-72
2022/03/22 03:38:19;;;;;;;;;;;;;;;5.65;97.18;103135.81;5009869;28;19921;-72
2022/03/22 03:43:25;;;;;;;;;;;;;;;5.53;96.54;103126.09;5007482;28;20636;-72
2022/03/22 03:48:32;;;;;;;;;;;;;;;5.61;97.44;103137.50;5008674;28;20016;-73
2022/03/22 03:50:58;;;;;;;;;;;;;;;5.58;98.20;103143.53;5010035;28;20054;-73
2022/03/22 03:53:23;;;;;;;;;;;;;;;5.56;97.61;103134.84;5025451;28;19921;-73
2022/03/22 03:55:49;;;;;;;;;;;;;;;5.58;98.47;103137.47;5026266;28;19933;-73
2022/03/22 03:58:14;;;;;;;;;;;;;;;5.60;98.35;103146.19;5005596;28;19922;-73
2022/03/22 04:00:39;;;;;;;;;;;;;;;5.59;98.96;103136.63;5005595;28;19918;-72
2022/03/22 04:03:05;;;;;;;;;;;;;;;5.57;98.54;103139.19;5008986;28;19922;-72
2022/03/22 04:05:30;;;;;;;;;;;;;;;5.54;99.33;103141.78;5026176;28;19955;-71
2022/03/22 04:07:56;;;;;;;;;;;;;;;5.58;99.54;103140.06;5029900;28;20430;-71
2022/03/22 04:10:21;;;;;;;;;;;;;;;5.60;99.01;103148.81;5028735;28;20367;-71
2022/03/22 04:12:46;;;;;;;;;;;;;;;5.55;98.91;103145.25;5031901;28;19927;-71
2022/03/22 04:15:12;;;;;;;;;;;;;;;5.49;99.52;103147.78;5028990;28;19952;-71
2022/03/22 04:17:38;;;;;;;;;;;;;;;5.45;99.77;103146.00;5027238;28;20384;-70
2022/03/22 04:20:03;;;;;;;;;;;;;;;5.40;99.99;103145.94;5014199;28;19919;-71
2022/03/22 04:22:30;;;;;;;;;;;;;;;5.39;100.00;103145.09;5017733;28;19923;-71
2022/03/22 04:24:55;;;;;;;;;;;;;;;5.37;99.95;103144.19;5001211;28;19917;-71
2022/03/22 04:32:42;;;;;;;;;;;;;;;5.41;100.00;103143.34;5008884;28;19933;-71
2022/03/22 04:35:08;;;;;;;;;;;;;;;5.45;100.00;103148.59;5009177;28;19918;-71
2022/03/22 04:37:33;;;;;;;;;;;;;;;5.40;100.00;103146.81;5008939;28;19922;-71
2022/03/22 04:40:00;;;;;;;;;;;;;;;5.44;100.00;103146.84;5009324;28;19917;-73
2022/03/22 04:42:26;;;;;;;;;;;;;;;5.45;100.00;103143.38;5007210;28;19929;-73
2022/03/22 04:44:51;;;;;;;;;;;;;;;5.44;100.00;103147.75;5010678;28;19928;-73
2022/03/22 04:47:17;;;;;;;;;;;;;;;5.39;100.00;103150.31;5007897;28;19924;-73
2022/03/22 04:49:42;;;;;;;;;;;;;;;5.41;100.00;103156.38;5007788;28;20281;-72
2022/03/22 04:57:28;;;;;;;;;;;;;;;5.40;100.00;103154.63;5006906;28;19921;-72
2022/03/22 04:59:54;;;;;;;;;;;;;;;5.41;100.00;103151.16;5007930;28;20376;-72
2022/03/22 05:02:20;;;;;;;;;;;;;;;5.44;100.00;103146.84;5007719;28;19921;-72
2022/03/22 05:04:45;;;;;;;;;;;;;;;5.44;99.79;103146.84;5022707;28;19956;-72
2022/03/22 05:07:10;;;;;;;;;;;;;;;5.44;100.00;103147.75;5027714;28;19917;-73
2022/03/22 05:09:36;;;;;;;;;;;;;;;5.42;100.00;103147.69;5026589;28;19927;-72
2022/03/22 05:12:02;;;;;;;;;;;;;;;5.41;100.00;103145.09;5027570;28;19978;-70
2022/03/22 05:14:27;;;;;;;;;;;;;;;5.35;99.60;103155.44;5027658;28;19967;-72
2022/03/22 05:16:56;;;;;;;;;;;;;;;5.37;99.98;103154.59;5027345;28;19957;-72
2022/03/22 05:19:22;;;;;;;;;;;;;;;5.34;100.00;103158.91;5017561;28;20564;-72
2022/03/22 05:21:47;;;;;;;;;;;;;;;5.34;100.00;103167.59;5009942;28;19924;-72
2022/03/22 05:24:13;;;;;;;;;;;;;;;5.36;100.00;103172.81;5012538;28;19927;-72
2022/03/22 05:26:38;;;;;;;;;;;;;;;5.32;100.00;103174.50;5006095;28;20359;-71
2022/03/22 05:29:05;;;;;;;;;;;;;;;5.32;100.00;103169.31;5005984;28;20041;-71
2022/03/22 05:31:31;;;;;;;;;;;;;;;5.29;100.00;103169.28;5006462;28;19930;-72
2022/03/22 05:33:57;;;;;;;;;;;;;;;5.29;100.00;103171.00;5008722;28;19971;-72
2022/03/22 05:36:22;;;;;;;;;;;;;;;5.28;100.00;103170.13;5003241;28;19996;-71
2022/03/22 05:38:48;;;;;;;;;;;;;;;5.28;100.00;103172.75;5005393;28;19918;-72
2022/03/22 05:41:13;;;;;;;;;;;;;;;5.28;100.00;103174.47;4988675;28;19991;-70
2022/03/22 05:43:39;;;;;;;;;;;;;;;5.24;100.00;103171.81;5002784;28;19944;-72
2022/03/22 05:46:04;;;;;;;;;;;;;;;5.21;100.00;103177.00;5007294;28;19956;-69
2022/03/22 05:48:30;;;;;;;;;;;;;;;5.19;100.00;103177.81;5006998;28;19942;-72
2022/03/22 05:50:55;;;;;;;;;;;;;;;5.15;100.00;103176.91;5007140;28;19917;-70
2022/03/22 05:53:21;;;;;;;;;;;;;;;5.22;100.00;103176.16;5014345;28;19991;-73
2022/03/22 05:55:46;;;;;;;;;;;;;;;5.33;100.00;103178.88;5005632;28;19929;-71
2022/03/22 05:58:11;;;;;;;;;;;;;;;5.37;100.00;103183.28;5006515;28;19922;-71
2022/03/22 06:00:37;;;;;;;;;;;;;;;5.38;100.00;103189.34;5005435;28;19921;-71
2022/03/22 06:03:02;;;;;;;;;;;;;;;5.41;100.00;103189.41;5007064;28;20047;-72
2022/03/22 06:05:29;;;;;;;;;;;;;;;5.41;100.00;103190.28;5026201;28;19945;-71
2022/03/22 06:07:55;;;;;;;;;;;;;;;5.49;100.00;103192.97;5026216;28;19917;-71
2022/03/22 06:10:21;;;;;;;;;;;;;;;5.51;100.00;103195.63;5013262;28;19929;-71
2022/03/22 06:12:46;;;;;;;;;;;;;;;5.53;100.00;103189.56;5006119;28;19940;-72
2022/03/22 06:15:15;;;;;;;;;;;;;;;5.62;100.00;103190.53;5005197;28;20455;-72
2022/03/22 06:17:45;;;;;;;;;;;;;;;5.63;100.00;103195.75;5003676;28;20044;-72
2022/03/22 06:20:10;;;;;;;;;;;;;;;5.69;100.00;103193.22;5003199;28;19933;-71
2022/03/22 06:22:36;;;;;;;;;;;;;;;5.73;99.64;103191.53;5014759;28;19928;-71
2022/03/22 06:25:01;;;;;;;;;;;;;;;5.78;99.73;103199.41;5006609;28;19945;-71
2022/03/22 06:27:26;;;;;;;;;;;;;;;5.88;99.39;103196.94;5006767;28;19940;-71
2022/03/22 06:29:52;;;;;;;;;;;;;;;5.97;98.85;103205.72;5005486;28;19924;-72
2022/03/22 06:32:17;;;;;;;;;;;;;;;6.06;98.79;103204.97;5005687;28;19925;-73
2022/03/22 06:34:42;;;;;;;;;;;;;;;6.15;97.83;103199.84;5005099;28;19976;-72
2022/03/22 06:37:07;;;;;;;;;;;;;;;6.17;98.16;103206.81;5005983;28;20293;-73
2022/03/22 06:39:33;;;;;;;;;;;;;;;6.25;97.79;103206.91;5005430;28;20315;-72
2022/03/22 06:41:58;;;;;;;;;;;;;;;6.24;97.23;103202.53;5006142;28;19929;-72
2022/03/22 06:44:24;;;;;;;;;;;;;;;6.31;96.80;103209.56;5006361;28;19917;-71
2022/03/22 06:46:49;;;;;;;;;;;;;;;6.42;97.18;103212.28;5005540;28;19921;-72
2022/03/22 06:49:14;;;;;;;;;;;;;;;6.59;96.40;103206.31;5005569;28;19979;-73
2022/03/22 06:51:40;;;;;;;;;;;;;;;6.66;95.09;103210.75;5022573;28;19929;-72
2022/03/22 06:54:05;;;;;;;;;;;;;;;6.76;94.77;103198.63;5025032;28;19917;-72
2022/03/22 06:56:31;;;;;;;;;;;;;;;6.84;94.54;103206.53;5014040;28;20281;-72
2022/03/22 06:58:58;;;;;;;;;;;;;;;6.96;93.60;103210.09;5006025;28;19921;-72
2022/03/22 07:01:23;;;;;;;;;;;;;;;7.04;93.62;103209.28;5006015;28;20044;-73
2022/03/22 07:03:49;;;;;;;;;;;;;;;7.04;92.50;103209.28;5013480;28;20435;-72
2022/03/22 07:06:14;;;;;;;;;;;;;;;7.00;93.19;103202.28;5009424;28;19921;-73
2022/03/22 07:08:40;;;;;;;;;;;;;;;7.24;92.28;103201.53;5006536;28;19960;-73
2022/03/22 07:13:50;;;;;;;;;;;;;;;7.16;92.04;103203.25;4995626;28;19922;-72
2022/03/22 07:16:16;;;;;;;;;;;;;;;7.28;91.64;103205.94;5010240;28;19917;-72
2022/03/22 07:18:41;;;;;;;;;;;;;;;7.31;91.67;103207.66;5008118;28;20008;-72
2022/03/22 07:21:06;;;;;;;;;;;;;;;7.37;91.44;103208.59;5007779;28;19925;-73
2022/03/22 07:23:32;;;;;;;;;;;;;;;7.43;91.10;103211.25;5001180;28;19921;-72
2022/03/22 07:25:57;;;;;;;;;;;;;;;7.60;91.18;103209.56;5005573;28;19921;-73
2022/03/22 07:28:23;;;;;;;;;;;;;;;7.70;90.12;103212.22;5008884;28;20467;-73
2022/03/22 07:30:48;;;;;;;;;;;;;;;7.90;90.16;103214.00;5009629;28;19941;-73
2022/03/22 07:33:13;;;;;;;;;;;;;;;8.07;88.94;103206.19;5007728;28;19926;-73
2022/03/22 07:35:39;;;;;;;;;;;;;;;8.22;87.83;103204.50;5008000;28;19988;-72
2022/03/22 07:38:04;;;;;;;;;;;;;;;8.28;87.39;103210.63;5008201;28;20381;-73
2022/03/22 07:40:29;;;;;;;;;;;;;;;8.65;86.61;103201.91;5009328;28;19940;-72
2022/03/22 07:42:55;;;;;;;;;;;;;;;8.75;85.54;103189.69;5008176;28;19921;-72
2022/03/22 07:45:21;;;;;;;;;;;;;;;8.86;84.81;103189.66;5008986;28;19992;-74
2022/03/22 07:47:46;;;;;;;;;;;;;;;9.11;84.30;103191.38;5008235;28;19997;-73
2022/03/22 07:55:37;;;;;;;;;;;;;;;9.54;82.18;103186.84;5005784;28;19933;-72
2022/03/22 07:58:05;;;;;;;;;;;;;;;9.47;81.06;103180.75;5009372;28;19921;-73
2022/03/22 08:00:31;;;;;;;;;;;;;;;9.70;80.56;103183.25;5007269;28;19922;-71
2022/03/22 08:02:58;;;;;;;;;;;;;;;9.91;79.20;103176.16;5013212;28;19947;-73
2022/03/22 08:05:24;;;;;;;;;;;;;;;10.03;77.20;103168.16;5010709;28;20388;-69
2022/03/22 08:07:49;;;;;;;;;;;;;;;10.08;77.26;103162.91;5006799;28;19963;-68
2022/03/22 08:10:15;;;;;;;;;;;;;;;10.51;74.90;103154.72;5007783;28;19971;-70
2022/03/22 08:12:40;;;;;;;;;;;;;;;10.76;73.78;103145.69;4991982;28;20028;-70
2022/03/22 08:15:06;;;;;;;;;;;;;;;10.99;73.43;103148.06;5008315;28;19925;-70
2022/03/22 08:17:32;;;;;;;;;;;;;;;10.91;72.79;103149.94;5011004;28;19928;-69
2022/03/22 08:19:57;;;;;;;;;;;;;;;10.64;73.44;103147.56;5008786;28;19921;-69
2022/03/22 08:22:22;;;;;;;;;;;;;;;10.78;74.01;103157.09;5007762;28;20399;-70
2022/03/22 08:24:48;;;;;;;;;;;;;;;10.97;73.88;103153.38;5007536;28;19967;-70
2022/03/22 08:27:13;;;;;;;;;;;;;;;11.28;72.89;103147.72;5007194;28;19917;-69
2022/03/22 08:29:38;;;;;;;;;;;;;;;11.48;72.13;103143.97;5007467;28;20581;-68
2022/03/22 08:32:04;;;;;;;;;;;;;;;11.94;71.07;103138.94;5006222;28;20016;-69
2022/03/22 08:34:29;;;;;;;;;;;;;;;12.14;69.87;103139.50;5009231;28;19956;-69
2022/03/22 08:36:55;;;;;;;;;;;;;;;13.50;67.70;103124.66;5005494;28;19987;-69
2022/03/22 08:39:20;;;;;;;;;;;;;;;14.85;60.70;103079.84;5006635;28;20182;-70
2022/03/22 08:41:45;;;;;;;;;;;;;;;16.54;58.99;103090.34;5001488;28;20397;-69
2022/03/22 08:44:11;;;;;;;;;;;;;;;17.71;55.94;103093.00;5004207;28;19972;-71
2022/03/22 08:46:37;;;;;;;;;;;;;;;18.84;50.17;103073.97;5005468;28;19972;-69
2022/03/22 08:49:02;;;;;;;;;;;;;;;19.72;47.42;103199.63;5004579;28;19969;-69
2022/03/22 08:51:27;;;;;;;;;;;;;;;19.20;48.30;103198.44;5006915;28;19932;-69
2022/03/22 08:53:54;;;;;;;;;;;;;;;19.56;46.85;103205.66;5007351;28;20376;-70
2022/03/22 08:56:22;;;;;;;;;;;;;;;21.08;42.37;103205.28;4987835;28;19926;-70
2022/03/22 08:58:50;;;;;;;;;;;;;;;20.93;42.88;103215.84;4985876;28;20009;-69
2022/03/22 09:01:15;;;;;;;;;;;;;;;20.89;42.86;103216.09;4988832;28;19921;-70
2022/03/22 09:03:41;;;;;;;;;;;;;;;21.46;41.34;103219.22;4986610;28;19926;-70
2022/03/22 09:06:10;;;;;;;;;;;;;;;22.13;40.33;103214.66;4987334;28;19926;-69
2022/03/22 09:08:37;;;;;;;;;;;;;;;22.69;38.65;103223.84;4986880;28;19925;-69
2022/03/22 09:11:03;;;;;;;;;;;;;;;22.63;38.55;103232.22;4988096;28;19921;-69
2022/03/22 09:13:29;;;;;;;;;;;;;;;21.93;39.58;103222.03;4988595;28;19922;-70
2022/03/22 09:15:55;;;;;;;;;;;;;;;22.52;39.48;103232.88;4988315;28;20020;-71
2022/03/22 09:18:21;;;;;;;;;;;;;;;23.24;37.64;103218.72;4988440;28;19933;-69
2022/03/22 09:20:46;;;;;;;;;;;;;;;20.49;40.92;103243.03;4988549;28;19926;-69
2022/03/22 09:23:12;;;;;;;;;;;;;;;20.13;42.77;103244.78;4988901;28;19972;-69
2022/03/22 09:25:39;;;;;;;;;;;;;;;20.75;41.25;103233.69;4989331;28;19968;-70
2022/03/22 09:28:06;;;;;;;;;;;;;;;20.49;42.07;103235.88;4987524;28;20115;-69
2022/03/22 09:30:32;;;;;;;;;;;;;;;21.19;40.61;103226.94;4986994;28;19918;-70
2022/03/22 09:32:57;;;;;;;;;;;;;;;21.25;40.89;103225.75;4987924;28;20266;-70
2022/03/22 09:35:23;;;;;;;;;;;;;;;21.51;40.45;103224.31;4987673;28;19918;-70
2022/03/22 09:37:49;;;;;;;;;;;;;;;22.63;37.94;103226.88;4988688;28;19925;-73
2022/03/22 09:40:15;;;;;;;;;;;;;;;23.66;36.13;103213.34;4987977;28;19926;-74
2022/03/22 09:42:45;;;;;;;;;;;;;;;23.87;34.63;103219.16;4989108;28;20360;-74
2022/03/22 09:45:13;;;;;;;;;;;;;;;22.88;36.19;103222.69;4988355;28;19918;-74
2022/03/22 09:47:38;;;;;;;;;;;;;;;22.38;37.78;103230.97;4987460;28;19922;-75
2022/03/22 09:50:06;;;;;;;;;;;;;;;23.76;35.18;103221.66;4988195;28;19952;-74
2022/03/22 09:52:31;;;;;;;;;;;;;;;24.12;34.42;103219.34;4990022;28;19922;-75
2022/03/22 09:54:56;;;;;;;;;;;;;;;22.13;37.09;103230.72;5009444;28;19956;-74
2022/03/22 09:57:22;;;;;;;;;;;;;;;22.84;36.36;103219.34;5007160;28;19917;-73
2022/03/22 09:59:47;;;;;;;;;;;;;;;22.23;37.37;103223.88;5007193;28;20036;-75
2022/03/22 10:02:12;;;;;;;;;;;;;;;23.13;36.29;103213.97;4988859;28;19917;-74
2022/03/22 10:04:41;;;;;;;;;;;;;;;23.00;36.63;103213.03;5007740;28;19960;-73
2022/03/22 10:07:07;;;;;;;;;;;;;;;22.66;36.69;103207.06;5005631;28;19918;-75
2022/03/22 10:09:36;;;;;;;;;;;;;;;23.54;34.93;103201.59;5008983;28;20072;-74
2022/03/22 10:12:03;;;;;;;;;;;;;;;23.41;34.69;103206.91;5006403;28;19930;-74
2022/03/22 10:14:37;;;;;;;;;;;;;;;23.23;35.50;103203.56;5009270;28;19918;-74
2022/03/22 10:17:09;;;;;;;;;;;;;;;23.43;35.57;103204.13;5005470;28;20296;-73
2022/03/22 10:19:41;;;;;;;;;;;;;;;24.76;33.51;103198.00;5008500;28;20596;-74
2022/03/22 10:22:10;;;;;;;;;;;;;;;24.29;35.07;103210.16;5010823;28;19923;-75
2022/03/22 10:24:43;;;;;;;;;;;;;;;24.14;34.65;103210.25;5009730;28;19930;-74
2022/03/22 10:27:24;;;;;;;;;;;;;;;23.85;35.47;103212.16;5004348;28;19925;-74
2022/03/22 10:29:50;;;;;;;;;;;;;;;23.65;35.73;103203.56;4999969;28;19924;-74
2022/03/22 10:32:16;;;;;;;;;;;;;;;23.68;36.49;103207.91;4985590;28;20020;-74
2022/03/22 10:34:42;;;;;;;;;;;;;;;23.26;36.01;103202.50;4987864;28;20005;-74
2022/03/22 10:37:07;;;;;;;;;;;;;;;22.94;37.20;103203.53;4986572;28;20020;-73
2022/03/22 10:39:34;;;;;;;;;;;;;;;24.05;35.60;103206.34;4989903;28;20004;-74
2022/03/22 10:42:04;;;;;;;;;;;;;;;22.18;37.34;103212.53;4989312;28;19922;-74
2022/03/22 10:44:33;;;;;;;;;;;;;;;22.37;38.00;103215.00;4990047;28;20385;-74
2022/03/22 10:47:02;;;;;;;;;;;;;;;21.39;39.08;103217.81;5007236;28;19932;-74
2022/03/22 10:49:28;;;;;;;;;;;;;;;22.14;38.49;103209.19;5006556;28;19923;-74
2022/03/22 10:51:53;;;;;;;;;;;;;;;20.66;40.87;103219.00;5007449;28;19985;-74
2022/03/22 10:54:19;;;;;;;;;;;;;;;20.45;41.79;103218.28;5006960;28;19924;-74
2022/03/22 10:56:49;;;;;;;;;;;;;;;20.01;42.49;103221.38;4998219;28;20652;-74
2022/03/22 10:59:15;;;;;;;;;;;;;;;20.66;41.79;103212.78;5007007;28;20499;-73
2022/03/22 11:01:44;;;;;;;;;;;;;;;19.91;42.11;103216.50;5008236;28;20027;-74
2022/03/22 11:04:10;;;;;;;;;;;;;;;19.47;42.94;103217.63;5016400;28;20471;-73
2022/03/22 11:06:37;;;;;;;;;;;;;;;19.25;44.29;103223.09;5028912;28;20299;-74
2022/03/22 11:09:03;;;;;;;;;;;;;;;19.19;44.15;103226.03;5027598;28;19924;-73
2022/03/22 11:11:30;;;;;;;;;;;;;;;18.93;44.74;103224.50;5029046;28;19943;-74
2022/03/22 11:13:55;;;;;;;;;;;;;;;18.15;46.96;103225.09;5027015;28;19918;-72
2022/03/22 11:16:22;;;;;;;;;;;;;;;17.78;48.34;103227.41;5026666;28;19928;-74
2022/03/22 11:18:48;;;;;;;;;;;;;;;17.78;47.51;103215.94;5022587;28;19923;-73
2022/03/22 11:21:16;;;;;;;;;;;;;;;18.00;47.70;103215.09;5006906;28;19992;-73
2022/03/22 11:23:42;;;;;;;;;;;;;;;18.23;47.50;103222.13;5014373;28;19933;-74
2022/03/22 11:26:07;;;;;;;;;;;;;;;18.07;47.88;103217.47;5006183;28;19917;-74
2022/03/22 11:28:32;;;;;;;;;;;;;;;17.96;48.94;103221.44;5022648;28;19922;-73
2022/03/22 11:30:59;;;;;;;;;;;;;;;18.20;47.68;103211.59;5006010;28;20016;-74
2022/03/22 11:36:12;;;;;;;;;;;;;;;17.93;48.00;103220.63;5006031;28;19928;-74
2022/03/22 11:38:46;;;;;;;;;;;;;;;17.96;47.01;103219.66;5008653;28;19917;-74
2022/03/22 11:44:02;;;;;;;;;;;;;;;18.40;46.78;103213.44;5005869;28;19979;-74
2022/03/22 11:46:31;;;;;;;;;;;;;;;18.25;46.73;103217.63;5009668;28;19925;-74
2022/03/22 11:48:57;;;;;;;;;;;;;;;18.13;46.12;103208.34;5007039;28;19923;-74
2022/03/22 11:51:23;;;;;;;;;;;;;;;18.42;46.27;103216.03;5006262;28;19918;-74
2022/03/22 11:53:48;;;;;;;;;;;;;;;18.60;45.67;103207.28;5005917;28;19996;-74
2022/03/22 11:56:13;;;;;;;;;;;;;;;18.07;47.13;103206.81;5005976;28;20092;-74
2022/03/22 11:58:54;;;;;;;;;;;;;;;17.86;47.61;103210.31;5010376;28;19925;-74
2022/03/22 12:01:19;;;;;;;;;;;;;;;17.72;48.21;103210.81;5008846;28;19917;-74
2022/03/22 12:03:49;;;;;;;;;;;;;;;17.84;48.34;103218.31;5017580;28;19943;-73
2022/03/22 12:06:16;;;;;;;;;;;;;;;17.91;47.37;103210.97;5029619;28;20010;-74
2022/03/22 12:08:42;;;;;;;;;;;;;;;17.87;47.21;103204.91;5028880;28;19928;-73
2022/03/22 12:11:11;;;;;;;;;;;;;;;18.05;47.44;103198.03;5029036;28;19921;-73
2022/03/22 12:13:45;;;;;;;;;;;;;;;18.00;47.90;103200.00;5032122;28;19921;-74
2022/03/22 12:16:10;;;;;;;;;;;;;;;18.11;47.88;103199.56;5028987;28;19924;-72
2022/03/22 12:18:35;;;;;;;;;;;;;;;18.31;47.64;103195.22;5028962;28;19918;-74
2022/03/22 12:21:01;;;;;;;;;;;;;;;18.12;47.46;103192.44;5004067;28;19972;-73
2022/03/22 12:23:27;;;;;;;;;;;;;;;17.85;47.97;103193.47;5016447;28;19917;-73
2022/03/22 12:25:52;;;;;;;;;;;;;;;17.69;48.82;103192.34;5011498;28;20368;-73
2022/03/22 12:28:18;;;;;;;;;;;;;;;17.68;48.45;103188.81;5008729;28;19934;-73
2022/03/22 12:30:44;;;;;;;;;;;;;;;17.84;47.61;103183.75;5011049;28;19917;-74
2022/03/22 12:33:13;;;;;;;;;;;;;;;17.92;47.97;103183.44;5008693;28;19921;-74
2022/03/22 12:35:39;;;;;;;;;;;;;;;18.08;48.16;103179.25;5011831;28;19929;-75
2022/03/22 12:38:04;;;;;;;;;;;;;;;17.72;48.07;103178.91;5009230;28;19918;-74
2022/03/22 12:40:30;;;;;;;;;;;;;;;17.76;48.33;103175.22;5011745;28;19960;-74
2022/03/22 12:42:56;;;;;;;;;;;;;;;18.06;47.16;103169.63;4984289;28;20391;-74
2022/03/22 12:45:23;;;;;;;;;;;;;;;17.91;47.56;103171.06;4989271;28;19969;-74
2022/03/22 12:47:49;;;;;;;;;;;;;;;17.84;47.11;103169.59;5004306;28;19924;-74
2022/03/22 12:50:15;;;;;;;;;;;;;;;17.95;47.21;103164.72;5008486;28;20017;-74
2022/03/22 12:52:42;;;;;;;;;;;;;;;17.76;48.01;103168.09;5020851;28;19929;-74
2022/03/22 12:55:09;;;;;;;;;;;;;;;17.74;48.31;103159.34;5028247;28;19925;-73
2022/03/22 12:57:34;;;;;;;;;;;;;;;17.85;47.75;103160.72;5014656;28;20304;-73
2022/03/22 13:00:00;;;;;;;;;;;;;;;17.94;47.51;103155.00;5010796;28;19922;-73
2022/03/22 13:02:26;;;;;;;;;;;;;;;17.96;47.76;103155.81;5010081;28;19959;-74
2022/03/22 13:04:52;;;;;;;;;;;;;;;18.06;46.85;103148.34;5025299;28;19956;-74
2022/03/22 13:07:25;;;;;;;;;;;;;;;17.88;47.54;103153.47;5009293;28;20005;-74
2022/03/22 13:12:34;;;;;;;;;;;;;;;18.19;45.86;103132.75;4989837;28;19929;-73
2022/03/22 13:15:04;;;;;;;;;;;;;;;18.40;44.71;103120.28;5009638;28;19917;-73
2022/03/22 13:17:32;;;;;;;;;;;;;;;18.23;45.16;103123.69;5008558;28;19925;-73